Adams, Wisconsin
Current Conditions -  °F | °C
As of 11:38 PM on Sunday 21 Dec 2014 (Local Time) from KVOK Reporting Station
Overcast Overcast  
Wind Chill: 27°   Ceiling: 1200
Heat Index: 36°   Visibility: 9mi
Dew Point: 36°   Wind: 13mph
Humidity: 100%   Direction: 150°SSE
Pressure: 29.87"   Gusts: NA
Location:  43.96°N, 89.82°W
Report Text: KVOK 220538Z AUTO 15011KT 9SM R27/5500FT OVC012 02/02 A2987 RMK AO2
Loading
Personal Weather Stations






























Interactive Weather Map New forecast layout! Learn more

10-Day Weather Forecast

Advertisements
Track Severe Weather on mobile